Time;durP1;ratioP1;P1;durP2;ratioP2;P2;SDS_P1;SDS_P2;PMS_P1;PMS_P2;Temp;Humidity;BMP_temperature;BMP_pressure;BME280_temperature;BME280_humidity;BME280_pressure;Samples;Min_cycle;Max_cycle;Signal;HPM_P1;HPM_P2
2023/07/06 00:01:26;;;;;;;6.07;3.53;;;;;;;9.42;100.00;96106.38;7403569;19;20409;-91
2023/07/06 00:03:57;;;;;;;4.37;3.90;;;;;;;10.88;100.00;96296.28;7413791;19;20396;-91
2023/07/06 00:06:24;;;;;;;4.77;3.67;;;;;;;10.24;100.00;96214.84;7408040;19;20782;-91
2023/07/06 00:08:53;;;;;;;6.60;3.90;;;;;;;10.17;100.00;96211.94;7405162;19;20408;-92
2023/07/06 00:11:20;;;;;;;3.70;3.27;;;;;;;10.86;100.00;96319.63;7403390;19;20403;-91
2023/07/06 00:13:47;;;;;;;7.73;3.50;;;;;;;10.71;100.00;96280.59;7404799;19;20381;-91
2023/07/06 00:16:16;;;;;;;4.20;3.27;;;;;;;11.36;100.00;96377.63;7403394;19;20412;-92
2023/07/06 00:18:47;;;;;;;5.37;3.43;;;;;;;10.59;100.00;96303.28;7403200;19;20418;-91
2023/07/06 00:21:14;;;;;;;4.77;3.67;;;;;;;9.92;100.00;96188.06;7405524;19;20381;-91
2023/07/06 00:23:43;;;;;;;3.87;3.57;;;;;;;11.19;100.00;96365.31;7411110;19;20368;-91
2023/07/06 00:26:10;;;;;;;7.47;3.97;;;;;;;10.43;100.00;96265.34;7409990;19;20782;-91
2023/07/06 00:28:38;;;;;;;5.10;3.90;;;;;;;10.30;100.00;96242.63;7406006;19;20420;-91
2023/07/06 00:31:10;;;;;;;5.37;3.40;;;;;;;10.08;100.00;96215.41;7404452;19;20412;-91
2023/07/06 00:33:39;;;;;;;3.77;2.97;;;;;;;9.93;100.00;96202.81;7405846;19;20469;-90
2023/07/06 00:36:06;;;;;;;4.50;3.20;;;;;;;10.90;100.00;96342.47;7415405;19;20381;-89
2023/07/06 00:38:33;;;;;;;6.63;3.30;;;;;;;10.18;100.00;96275.00;7432451;19;20480;-90
2023/07/06 00:41:02;;;;;;;10.13;3.33;;;;;;;10.61;100.00;96377.75;7432735;19;20396;-91
2023/07/06 00:43:49;;;;;;;4.07;3.43;;;;;;;9.68;100.00;96230.97;7401025;19;20388;-91
2023/07/06 00:46:17;;;;;;;4.40;3.37;;;;;;;10.51;100.00;96350.91;7406830;19;20380;-91
2023/07/06 00:48:46;;;;;;;4.60;3.73;;;;;;;9.66;100.00;96213.94;7400055;19;20443;-91
2023/07/06 00:51:27;;;;;;;4.23;3.53;;;;;;;10.21;100.00;96302.66;7403810;19;20381;-91
2023/07/06 00:54:01;;;;;;;4.33;3.93;;;;;;;9.89;100.00;96253.97;7403546;19;20365;-91
2023/07/06 00:56:34;;;;;;;3.10;2.80;;;;;;;9.30;100.00;96153.81;7401567;19;20483;-91
2023/07/06 00:59:05;;;;;;;3.80;3.50;;;;;;;10.98;100.00;96375.22;7400304;19;20917;-91
2023/07/06 01:01:36;;;;;;;3.77;3.40;;;;;;;10.51;100.00;96282.97;7402723;19;20392;-91
2023/07/06 01:04:08;;;;;;;5.90;3.50;;;;;;;10.28;100.00;96253.50;7404213;19;20478;-92
2023/07/06 01:06:40;;;;;;;13.27;4.40;;;;;;;11.15;100.00;96371.63;7403449;19;20377;-92
2023/07/06 01:09:08;;;;;;;8.30;3.70;;;;;;;10.27;100.00;96251.16;7401366;19;20932;-92
2023/07/06 01:11:38;;;;;;;6.43;3.50;;;;;;;10.99;100.00;96370.72;7402278;19;20754;-92
2023/07/06 01:14:05;;;;;;;4.73;2.80;;;;;;;10.48;100.00;96304.78;7400591;19;20392;-92
2023/07/06 01:17:15;;;;;;;5.40;3.40;;;;;;;10.72;100.00;96378.13;7400827;19;20396;-92
2023/07/06 01:19:58;;;;;;;3.13;2.80;;;;;;;10.16;100.00;96287.00;7402002;19;20381;-92
2023/07/06 01:22:48;;;;;;;3.70;3.40;;;;;;;9.82;100.00;96214.09;7401786;19;20396;-92
2023/07/06 01:25:40;;;;;;;4.80;3.10;;;;;;;10.72;100.00;96386.06;7403213;19;20476;-93
2023/07/06 01:28:36;;;;;;;4.40;3.00;;;;;;;10.39;100.00;96380.72;7401543;19;20423;-93
2023/07/06 01:31:18;;;;;;;4.67;3.60;;;;;;;10.37;100.00;96382.91;7399585;19;20401;-93
2023/07/06 01:34:09;;;;;;;4.67;4.07;;;;;;;10.13;100.00;96306.91;7399766;19;20392;-93
2023/07/06 01:36:42;;;;;;;6.13;3.70;;;;;;;10.59;100.00;96373.88;7401186;19;20416;-93
2023/07/06 01:39:19;;;;;;;5.57;4.13;;;;;;;9.61;100.00;96233.34;7400380;19;20440;-92
2023/07/06 01:42:06;;;;;;;4.20;3.20;;;;;;;9.89;100.00;96275.09;7400031;19;20392;-93
2023/07/06 01:44:35;;;;;;;3.33;3.13;;;;;;;9.12;100.00;96159.22;7402313;19;20460;-92
2023/07/06 01:47:03;;;;;;;3.97;3.30;;;;;;;10.00;100.00;96289.44;7399030;19;20424;-92
2023/07/06 01:49:31;;;;;;;4.43;3.80;;;;;;;9.61;100.00;96238.63;7400809;19;20393;-92
2023/07/06 01:52:26;;;;;;;3.80;3.40;;;;;;;10.55;100.00;96373.75;7399395;19;20385;-92
2023/07/06 01:55:09;;;;;;;3.80;3.33;;;;;;;10.06;100.00;96304.78;7422754;19;20422;-91
2023/07/06 01:57:46;;;;;;;4.17;3.77;;;;;;;10.25;100.00;96330.78;7433780;19;20443;-90
2023/07/06 02:00:30;;;;;;;4.47;3.83;;;;;;;10.23;100.00;96354.09;7404308;19;20396;-92
2023/07/06 02:03:01;;;;;;;5.20;3.80;;;;;;;9.53;100.00;96292.25;7400114;19;20393;-92
2023/07/06 02:05:28;;;;;;;5.20;3.70;;;;;;;10.04;100.00;96357.19;7401537;19;20371;-92
2023/07/06 02:07:55;;;;;;;7.60;3.83;;;;;;;9.75;100.00;96331.59;7398207;19;20420;-92
2023/07/06 02:10:22;;;;;;;3.80;3.30;;;;;;;9.48;100.00;96290.59;7399675;19;20400;-93
2023/07/06 02:12:49;;;;;;;3.70;3.20;;;;;;;9.73;100.00;96336.38;7402417;19;20404;-92
2023/07/06 02:15:18;;;;;;;5.80;3.63;;;;;;;9.56;100.00;96323.28;7402409;19;20395;-93
2023/07/06 02:17:46;;;;;;;8.77;3.53;;;;;;;9.02;100.00;96222.84;7400399;19;20432;-92
2023/07/06 02:20:17;;;;;;;3.83;3.53;;;;;;;9.15;100.00;96229.78;7401201;19;20916;-92
2023/07/06 02:22:45;;;;;;;6.77;4.20;;;;;;;10.24;100.00;96383.94;7400179;19;20364;-92
2023/07/06 02:25:12;;;;;;;4.30;3.83;;;;;;;8.88;100.00;96220.44;7401373;19;20510;-93
2023/07/06 02:27:41;;;;;;;5.30;3.63;;;;;;;8.59;100.00;96170.34;7396953;19;20431;-92
2023/07/06 02:30:09;;;;;;;6.40;3.50;;;;;;;9.20;100.00;96231.44;7399685;19;20783;-92
2023/07/06 02:32:36;;;;;;;4.40;3.47;;;;;;;9.76;100.00;96333.13;7400372;19;20456;-92
2023/07/06 02:35:03;;;;;;;3.53;3.23;;;;;;;9.59;100.00;96301.53;7401837;19;20385;-92
2023/07/06 02:37:30;;;;;;;8.27;4.27;;;;;;;9.96;100.00;96359.88;7397378;19;20428;-92
2023/07/06 02:40:00;;;;;;;3.70;3.40;;;;;;;8.82;100.00;96295.53;7396674;19;20407;-92
2023/07/06 02:42:28;;;;;;;3.53;3.23;;;;;;;9.24;100.00;96359.00;7399302;19;20361;-92
2023/07/06 02:44:57;;;;;;;3.57;3.27;;;;;;;8.94;100.00;96307.25;7397306;19;20917;-92
2023/07/06 02:47:26;;;;;;;7.13;3.53;;;;;;;9.78;100.00;96389.03;7396270;19;20416;-92
2023/07/06 02:49:53;;;;;;;6.63;3.87;;;;;;;9.34;100.00;96319.03;7396113;19;20779;-92
2023/07/06 02:52:20;;;;;;;4.10;3.70;;;;;;;9.86;100.00;96389.28;7398426;19;20384;-92
2023/07/06 02:54:47;;;;;;;4.03;3.30;;;;;;;9.64;100.00;96350.75;7398209;19;20384;-92
2023/07/06 02:57:14;;;;;;;12.50;3.67;;;;;;;9.32;100.00;96329.16;7397452;19;20417;-92
2023/07/06 02:59:41;;;;;;;5.37;3.80;;;;;;;9.41;100.00;96374.75;7397075;19;20386;-92
2023/07/06 03:02:08;;;;;;;3.87;3.53;;;;;;;9.10;100.00;96309.09;7398085;19;20388;-92
2023/07/06 03:04:36;;;;;;;4.03;3.07;;;;;;;9.29;100.00;96340.34;7396737;19;20416;-92
2023/07/06 03:07:04;;;;;;;5.60;3.80;;;;;;;8.87;100.00;96342.03;7398127;19;20411;-92
2023/07/06 03:09:31;;;;;;;7.27;2.93;;;;;;;9.11;100.00;96381.06;7397505;19;20494;-93
2023/07/06 03:11:58;;;;;;;4.50;2.93;;;;;;;7.24;100.00;96115.47;7398311;19;20424;-93
2023/07/06 03:14:25;;;;;;;3.30;3.00;;;;;;;7.84;100.00;96203.34;7396220;19;20404;-93
2023/07/06 03:16:53;;;;;;;4.10;3.67;;;;;;;9.27;100.00;96408.47;7397275;19;20410;-93
2023/07/06 03:19:21;;;;;;;3.97;3.10;;;;;;;9.37;100.00;96404.75;7396147;19;20923;-93
2023/07/06 03:21:49;;;;;;;4.57;2.93;;;;;;;9.33;100.00;96406.44;7397745;19;20418;-93
2023/07/06 03:24:16;;;;;;;8.63;3.10;;;;;;;8.98;100.00;96368.84;7396202;19;20356;-93
2023/07/06 03:26:44;;;;;;;7.23;3.67;;;;;;;9.45;100.00;96407.31;7397408;19;20381;-91
2023/07/06 03:29:14;;;;;;;8.23;4.30;;;;;;;9.29;100.00;96405.53;7396281;19;20372;-92
2023/07/06 03:31:42;;;;;;;3.93;3.13;;;;;;;9.33;100.00;96415.13;7396979;19;20472;-94
2023/07/06 03:34:09;;;;;;;4.77;2.67;;;;;;;9.46;100.00;96408.88;7396137;19;21267;-93
2023/07/06 03:36:38;;;;;;;3.90;3.40;;;;;;;8.79;100.00;96351.50;7397501;19;20380;-93
2023/07/06 03:39:06;;;;;;;4.90;3.37;;;;;;;8.83;100.00;96333.22;7395680;19;20391;-93
2023/07/06 03:41:33;;;;;;;3.60;3.30;;;;;;;9.33;100.00;96383.47;7397963;19;20421;-93
2023/07/06 03:44:00;;;;;;;4.03;3.23;;;;;;;8.84;100.00;96316.31;7396959;19;20733;-92
2023/07/06 03:46:39;;;;;;;4.00;3.60;;;;;;;9.16;100.00;96405.41;7393041;19;20381;-93
2023/07/06 03:49:10;;;;;;;8.00;3.43;;;;;;;8.41;100.00;96253.16;7396178;19;20385;-93
2023/07/06 03:51:46;;;;;;;9.83;6.40;;;;;;;8.27;100.00;96251.44;7394510;19;20396;-93
2023/07/06 03:54:12;;;;;;;5.43;3.57;;;;;;;8.13;100.00;96242.16;7398261;19;20384;-93
2023/07/06 03:56:40;;;;;;;10.00;3.80;;;;;;;8.96;100.00;96358.63;7394929;19;20392;-93
2023/07/06 03:59:07;;;;;;;5.60;3.07;;;;;;;9.40;100.00;96377.72;7394241;19;20375;-93
2023/07/06 04:01:36;;;;;;;4.73;4.33;;;;;;;9.02;100.00;96359.22;7395747;19;20396;-93
2023/07/06 04:04:06;;;;;;;3.40;3.10;;;;;;;8.74;100.00;96406.25;7397566;19;20373;-93
2023/07/06 04:06:40;;;;;;;5.60;3.33;;;;;;;9.12;100.00;96420.31;7396298;19;21007;-92
2023/07/06 04:09:09;;;;;;;5.87;3.60;;;;;;;9.43;100.00;96421.94;7394898;19;20723;-92
2023/07/06 04:11:37;;;;;;;6.67;3.93;;;;;;;9.41;100.00;96413.56;7395147;19;20401;-92
2023/07/06 04:14:04;;;;;;;4.10;3.13;;;;;;;8.79;100.00;96300.66;7394986;19;20479;-92
2023/07/06 04:16:31;;;;;;;9.90;3.53;;;;;;;8.69;100.00;96322.88;7395812;19;20400;-92
2023/07/06 04:18:58;;;;;;;5.17;3.30;;;;;;;9.53;100.00;96437.44;7394179;19;20361;-92
2023/07/06 04:21:25;;;;;;;10.43;5.07;;;;;;;9.24;100.00;96432.09;7393124;19;20405;-92
2023/07/06 04:23:52;;;;;;;9.57;3.90;;;;;;;9.05;100.00;96361.22;7395424;19;20400;-92
2023/07/06 04:26:20;;;;;;;8.00;3.87;;;;;;;9.74;100.00;96445.41;7396764;19;20716;-92
2023/07/06 04:28:49;;;;;;;3.70;3.27;;;;;;;9.65;100.00;96418.28;7395094;19;20420;-92
2023/07/06 04:31:17;;;;;;;5.57;3.83;;;;;;;9.84;100.00;96425.78;7396182;19;20938;-93
2023/07/06 04:33:45;;;;;;;4.80;3.80;;;;;;;8.81;100.00;96261.56;7395659;19;20727;-93
2023/07/06 04:36:16;;;;;;;6.80;3.80;;;;;;;9.89;100.00;96393.94;7399292;19;20749;-92
2023/07/06 04:38:43;;;;;;;3.83;3.53;;;;;;;10.10;100.00;96409.81;7394250;19;20782;-93
2023/07/06 04:41:12;;;;;;;4.93;3.77;;;;;;;10.40;100.00;96416.63;7398239;19;20388;-92
2023/07/06 04:43:39;;;;;;;9.37;4.20;;;;;;;10.32;100.00;96377.84;7396593;19;20384;-92
2023/07/06 04:46:07;;;;;;;5.60;3.80;;;;;;;10.83;100.00;96436.69;7401250;19;20393;-92
2023/07/06 04:48:34;;;;;;;6.00;4.03;;;;;;;10.88;100.00;96442.53;7400469;19;20424;-92
2023/07/06 04:51:01;;;;;;;3.73;3.33;;;;;;;10.27;100.00;96344.44;7403641;19;20377;-92
2023/07/06 04:53:32;;;;;;;4.50;3.83;;;;;;;10.54;100.00;96364.25;7411306;19;20410;-91
2023/07/06 04:56:00;;;;;;;5.40;3.60;;;;;;;11.02;100.00;96415.78;7408661;19;20377;-92
2023/07/06 04:58:30;;;;;;;10.27;4.33;;;;;;;10.80;100.00;96345.50;7422152;19;20491;-91
2023/07/06 05:01:06;;;;;;;4.93;4.43;;;;;;;10.75;100.00;96345.72;7434980;19;20396;-92
2023/07/06 05:03:35;;;;;;;5.03;4.50;;;;;;;11.51;100.00;96451.09;7434952;19;20392;-90
2023/07/06 05:06:05;;;;;;;4.87;4.30;;;;;;;11.30;100.00;96452.25;7431171;19;20393;-92
2023/07/06 05:08:32;;;;;;;5.07;4.57;;;;;;;10.04;100.00;96256.03;7405441;19;20432;-91
2023/07/06 05:11:03;;;;;;;7.00;5.77;;;;;;;10.94;100.00;96369.03;7400442;19;20401;-91
2023/07/06 05:13:31;;;;;;;7.97;4.27;;;;;;;10.50;100.00;96257.63;7402926;19;20392;-92
2023/07/06 05:15:58;;;;;;;5.77;4.67;;;;;;;11.65;100.00;96397.81;7400586;19;20401;-92
2023/07/06 05:18:25;;;;;;;6.57;4.97;;;;;;;11.50;100.00;96364.81;7400603;19;20987;-92
2023/07/06 05:20:56;;;;;;;5.37;4.90;;;;;;;12.18;100.00;96451.72;7400678;19;20900;-91
2023/07/06 05:23:28;;;;;;;4.70;4.23;;;;;;;12.47;100.00;96450.66;7404012;19;20393;-92
2023/07/06 05:26:02;;;;;;;6.20;5.60;;;;;;;12.29;100.00;96420.22;7404596;19;20388;-91
2023/07/06 05:28:31;;;;;;;4.97;4.47;;;;;;;12.40;100.00;96422.06;7405200;19;20438;-92
2023/07/06 05:31:02;;;;;;;7.53;4.70;;;;;;;11.60;100.00;96281.50;7406024;19;20993;-92
2023/07/06 05:33:30;;;;;;;8.13;5.37;;;;;;;12.40;100.00;96382.28;7409134;19;20404;-90
2023/07/06 05:35:57;;;;;;;6.63;5.00;;;;;;;12.73;100.00;96426.41;7403830;19;20396;-90
2023/07/06 05:38:25;;;;;;;7.27;6.03;;;;;;;12.64;100.00;96394.69;7400852;19;20417;-91
2023/07/06 05:40:52;;;;;;;5.20;4.70;;;;;;;13.10;100.00;96442.19;7403791;19;20412;-91
2023/07/06 05:43:20;;;;;;;4.70;4.17;;;;;;;12.91;100.00;96406.41;7401103;19;20403;-91
2023/07/06 05:45:47;;;;;;;5.50;4.80;;;;;;;12.69;100.00;96340.66;7400401;19;20433;-91
2023/07/06 05:48:14;;;;;;;4.57;4.10;;;;;;;13.39;100.00;96425.13;7398241;19;20430;-91
2023/07/06 05:50:42;;;;;;;5.23;4.73;;;;;;;13.40;100.00;96424.00;7400974;19;20755;-91
2023/07/06 05:53:09;;;;;;;8.13;4.70;;;;;;;12.81;100.00;96321.97;7400690;19;20403;-92
2023/07/06 05:55:36;;;;;;;8.40;4.90;;;;;;;13.03;100.00;96347.97;7404237;19;20377;-91
2023/07/06 05:58:03;;;;;;;7.20;4.47;;;;;;;14.13;100.00;96485.38;7395812;19;20434;-91
2023/07/06 06:00:36;;;;;;;7.77;5.17;;;;;;;14.34;100.00;96479.78;7401975;19;20378;-90
2023/07/06 06:03:04;;;;;;;5.43;4.63;;;;;;;13.42;100.00;96332.25;7407654;19;20380;-91
2023/07/06 06:05:34;;;;;;;5.90;3.80;;;;;;;12.39;100.00;96154.59;7405464;19;20404;-92
2023/07/06 06:08:02;;;;;;;5.87;4.30;;;;;;;15.13;100.00;96476.88;7404290;19;20385;-90
2023/07/06 06:10:31;;;;;;;4.63;4.20;;;;;;;15.19;100.00;96448.06;7422099;19;20414;-90
2023/07/06 06:12:57;;;;;;;6.43;4.53;;;;;;;14.22;100.00;96295.59;7421811;19;20371;-91
2023/07/06 06:15:27;;;;;;;4.90;4.23;;;;;;;15.58;100.00;96456.75;7401426;19;20381;-91
2023/07/06 06:17:54;;;;;;;6.93;4.07;;;;;;;15.95;100.00;96473.00;7399551;19;20425;-91
2023/07/06 06:20:21;;;;;;;5.10;4.70;;;;;;;15.91;100.00;96453.53;7404355;19;20399;-91
2023/07/06 06:22:49;;;;;;;5.30;4.20;;;;;;;16.39;100.00;96491.97;7401517;19;20403;-91
2023/07/06 06:25:16;;;;;;;3.90;3.60;;;;;;;15.76;100.00;96382.41;7400575;19;20411;-91
2023/07/06 06:27:43;;;;;;;6.50;4.23;;;;;;;16.08;100.00;96380.22;7397892;19;20449;-90
2023/07/06 06:30:10;;;;;;;5.30;4.10;;;;;;;16.93;100.00;96500.72;7401665;19;20398;-91
2023/07/06 06:32:37;;;;;;;5.87;4.47;;;;;;;16.57;100.00;96438.06;7394130;19;20423;-91
2023/07/06 06:35:19;;;;;;;5.47;4.47;;;;;;;17.44;100.00;96499.03;7401013;19;20388;-90
2023/07/06 06:37:46;;;;;;;5.43;4.90;;;;;;;16.59;100.00;96343.13;7397351;19;20422;-90
2023/07/06 06:40:14;;;;;;;9.57;6.20;;;;;;;17.65;100.00;96497.72;7397561;19;20341;-91
2023/07/06 06:42:42;;;;;;;4.30;3.77;;;;;;;17.49;100.00;96473.09;7398535;19;20958;-90
2023/07/06 06:45:09;;;;;;;4.63;4.00;;;;;;;17.86;100.00;96507.88;7397255;19;20728;-91
2023/07/06 06:47:36;;;;;;;6.83;3.63;;;;;;;17.81;97.88;96482.22;7397652;19;20500;-91
2023/07/06 06:50:03;;;;;;;3.70;3.40;;;;;;;17.77;100.00;96451.25;7397145;19;20459;-91
2023/07/06 06:52:32;;;;;;;6.20;3.30;;;;;;;18.14;96.59;96518.81;7397934;19;20414;-91
2023/07/06 06:54:59;;;;;;;4.37;3.77;;;;;;;18.03;95.08;96491.22;7397351;19;20415;-92
2023/07/06 06:57:26;;;;;;;4.47;3.00;;;;;;;18.53;90.07;96497.66;7402892;19;20729;-92
2023/07/06 06:59:53;;;;;;;4.70;3.20;;;;;;;18.28;92.80;96449.31;7399186;19;20398;-90
2023/07/06 07:02:22;;;;;;;3.90;3.33;;;;;;;18.71;86.21;96483.66;7399000;19;20391;-89
2023/07/06 07:04:49;;;;;;;4.80;3.43;;;;;;;18.67;86.10;96438.09;7397154;19;20403;-89
2023/07/06 07:07:17;;;;;;;4.13;3.47;;;;;;;18.51;89.12;96524.06;7397628;19;20431;-88
2023/07/06 07:09:47;;;;;;;4.77;3.60;;;;;;;17.76;89.69;96484.47;7396676;19;20387;-90
2023/07/06 07:12:14;;;;;;;3.83;3.20;;;;;;;18.04;90.11;96484.72;7398522;19;20406;-89
2023/07/06 07:14:41;;;;;;;6.93;3.67;;;;;;;17.37;90.32;96429.47;7398325;19;20821;-89
2023/07/06 07:17:10;;;;;;;5.30;4.30;;;;;;;17.99;89.45;96477.03;7399312;19;20392;-89
2023/07/06 07:19:37;;;;;;;6.70;3.30;;;;;;;17.43;86.28;96302.34;7398393;19;20500;-91
2023/07/06 07:22:04;;;;;;;4.07;3.67;;;;;;;19.13;86.15;96502.59;7399757;19;20400;-91
2023/07/06 07:24:32;;;;;;;4.00;3.40;;;;;;;19.15;89.16;96513.72;7396328;19;20403;-90
2023/07/06 07:27:00;;;;;;;3.93;3.20;;;;;;;19.12;84.98;96511.03;7395773;19;20427;-90
2023/07/06 07:29:27;;;;;;;5.93;2.93;;;;;;;19.77;86.58;96500.13;7399782;19;20408;-90
2023/07/06 07:31:54;;;;;;;7.37;4.23;;;;;;;19.96;80.75;96525.06;7395908;19;20927;-91
2023/07/06 07:34:21;;;;;;;3.70;3.10;;;;;;;20.32;81.42;96515.09;7398023;19;20384;-90
2023/07/06 07:36:50;;;;;;;5.87;2.93;;;;;;;20.37;80.27;96538.88;7395934;19;20756;-91
2023/07/06 07:39:17;;;;;;;8.80;4.20;;;;;;;20.31;80.55;96498.22;7397581;19;20399;-90
2023/07/06 07:41:45;;;;;;;4.80;2.70;;;;;;;20.26;81.15;96462.91;7395736;19;20384;-90
2023/07/06 07:44:12;;;;;;;3.77;3.17;;;;;;;20.27;78.01;96481.31;7396732;19;20419;-90
2023/07/06 07:46:39;;;;;;;5.27;3.10;;;;;;;20.58;nan;96519.31;7395193;19;20409;-90
2023/07/06 07:49:07;;;;;;;4.53;3.80;;;;;;;20.32;76.68;96447.97;7396400;19;20927;-90
2023/07/06 07:51:34;;;;;;;4.33;3.70;;;;;;;20.42;77.61;96521.63;7395547;19;20709;-91
2023/07/06 07:54:01;;;;;;;5.83;2.90;;;;;;;20.52;78.30;96497.44;7397915;19;20396;-90
2023/07/06 07:56:30;;;;;;;3.23;2.93;;;;;;;20.64;74.34;96451.34;7396324;19;20402;-90
2023/07/06 07:58:58;;;;;;;4.40;3.20;;;;;;;20.81;74.44;96498.13;7398263;19;20378;-90
2023/07/06 08:01:25;;;;;;;3.50;2.50;;;;;;;21.40;76.50;96524.47;7393657;19;20845;-90
2023/07/06 08:03:54;;;;;;;4.50;2.57;;;;;;;21.46;75.42;96496.75;7396203;19;20401;-88
2023/07/06 08:06:22;;;;;;;5.97;3.40;;;;;;;21.49;72.40;96504.03;7395952;19;20700;-90
2023/07/06 08:08:50;;;;;;;4.10;3.00;;;;;;;21.73;73.68;96541.97;7394740;19;20421;-89
2023/07/06 08:11:23;;;;;;;6.20;2.87;;;;;;;21.50;73.67;96507.47;7396573;19;20473;-91
2023/07/06 08:13:53;;;;;;;4.20;3.33;;;;;;;21.47;74.58;96529.81;7399713;19;20696;-90
2023/07/06 08:16:22;;;;;;;7.00;2.70;;;;;;;20.28;77.16;96536.56;7396109;19;20377;-90
2023/07/06 08:18:51;;;;;;;6.27;3.67;;;;;;;20.48;77.26;96528.16;7395461;19;20690;-89
2023/07/06 08:21:37;;;;;;;4.43;3.20;;;;;;;20.30;77.13;96518.19;7396501;19;20939;-90
2023/07/06 08:24:39;;;;;;;5.43;3.60;;;;;;;19.66;74.45;96405.44;7397635;19;20391;-90
2023/07/06 08:27:06;;;;;;;9.60;3.20;;;;;;;20.17;74.75;96513.56;7402786;19;20948;-90
2023/07/06 08:29:33;;;;;;;7.20;3.07;;;;;;;20.08;76.98;96484.41;7404795;19;20361;-91
2023/07/06 08:32:00;;;;;;;4.30;3.00;;;;;;;20.26;75.76;96468.28;7407952;19;20385;-90
2023/07/06 08:34:27;;;;;;;3.07;2.40;;;;;;;19.73;74.28;96466.38;7433790;19;20529;-89
2023/07/06 08:36:54;;;;;;;4.53;2.77;;;;;;;19.64;73.74;96431.88;7434424;19;20409;-87
2023/07/06 08:39:21;;;;;;;5.87;2.37;;;;;;;19.43;72.10;96421.84;7424138;19;20422;-91
2023/07/06 08:41:50;;;;;;;4.60;3.07;;;;;;;18.61;73.86;96392.13;7403998;19;20403;-90
2023/07/06 08:44:17;;;;;;;2.43;2.00;;;;;;;19.11;72.89;96472.72;7411075;19;20369;-91
2023/07/06 08:46:50;;;;;;;4.97;2.60;;;;;;;19.26;72.53;96511.09;7401583;19;20453;-92
2023/07/06 08:49:32;;;;;;;9.07;2.37;;;;;;;19.99;73.85;96535.78;7402230;19;20429;-91
2023/07/06 08:52:03;;;;;;;5.90;2.67;;;;;;;20.61;66.89;96513.94;7399584;19;20379;-92
2023/07/06 08:54:34;;;;;;;4.97;3.20;;;;;;;21.15;69.54;96546.06;7405993;19;20807;-92
2023/07/06 08:57:02;;;;;;;3.67;2.30;;;;;;;20.94;66.92;96491.19;7402537;19;20424;-92
2023/07/06 08:59:50;;;;;;;5.03;2.67;;;;;;;20.52;69.78;96543.13;7404208;19;20384;-92
2023/07/06 09:02:36;;;;;;;5.13;2.83;;;;;;;19.48;67.62;96378.56;7404787;19;20376;-91
2023/07/06 09:05:12;;;;;;;3.60;3.30;;;;;;;19.88;66.81;96347.13;7403086;19;20391;-91
2023/07/06 09:07:43;;;;;;;4.73;3.53;;;;;;;21.04;65.22;96508.44;7403427;19;20487;-91
2023/07/06 09:10:23;;;;;;;7.13;2.27;;;;;;;21.55;66.37;96485.56;7400000;19;20719;-91
2023/07/06 09:12:53;;;;;;;5.83;3.30;;;;;;;21.86;65.30;96542.28;7400483;19;20400;-92
2023/07/06 09:15:27;;;;;;;3.30;3.00;;;;;;;22.16;66.60;96536.31;7402831;19;20462;-91
2023/07/06 09:18:02;;;;;;;3.70;3.10;;;;;;;21.60;64.78;96450.16;7400021;19;20533;-90
2023/07/06 09:20:32;;;;;;;3.73;2.30;;;;;;;22.29;64.47;96532.75;7401008;19;20939;-90
2023/07/06 09:23:01;;;;;;;3.20;2.23;;;;;;;21.52;63.36;96417.16;7403789;19;20394;-90
2023/07/06 09:25:38;;;;;;;7.90;2.60;;;;;;;21.60;62.90;96470.91;7427926;19;20386;-87
2023/07/06 09:28:18;;;;;;;3.67;3.00;;;;;;;21.21;63.18;96405.41;7433093;19;20460;-86
2023/07/06 09:30:48;;;;;;;2.93;2.73;;;;;;;20.78;64.21;96361.09;7408600;19;20413;-91
2023/07/06 09:33:19;;;;;;;3.23;2.50;;;;;;;22.48;63.08;96536.06;7401204;19;20401;-92
2023/07/06 09:35:57;;;;;;;4.77;2.53;;;;;;;21.73;61.73;96377.78;7401837;19;20388;-91
2023/07/06 09:38:27;;;;;;;3.07;2.70;;;;;;;21.58;63.28;96482.06;7397202;19;20507;-91
2023/07/06 09:40:54;;;;;;;2.50;2.30;;;;;;;22.34;63.29;96510.78;7402050;19;20428;-91
2023/07/06 09:43:27;;;;;;;5.27;2.30;;;;;;;22.15;63.25;96478.22;7399940;19;20754;-91
2023/07/06 09:45:57;;;;;;;5.00;2.70;;;;;;;22.30;63.72;96528.13;7403823;19;20388;-90
2023/07/06 09:48:37;;;;;;;8.53;2.77;;;;;;;22.60;65.23;96508.63;7400589;19;20423;-91
2023/07/06 09:51:15;;;;;;;3.33;3.03;;;;;;;21.78;62.47;96466.19;7415346;19;20407;-91
2023/07/06 09:53:48;;;;;;;3.57;2.67;;;;;;;20.76;61.85;96396.41;7412293;19;20396;-90
2023/07/06 09:56:16;;;;;;;5.40;3.30;;;;;;;21.06;60.77;96397.81;7407615;19;20733;-90
2023/07/06 09:58:45;;;;;;;5.17;2.73;;;;;;;21.74;63.51;96479.66;7396288;19;20423;-91
2023/07/06 10:01:33;;;;;;;2.90;2.60;;;;;;;21.40;63.50;96524.47;7399396;19;20457;-90
2023/07/06 10:04:22;;;;;;;3.13;2.67;;;;;;;20.82;65.32;96488.16;7402641;19;20406;-91
2023/07/06 10:07:08;;;;;;;6.53;2.70;;;;;;;21.48;63.66;96493.66;7400630;19;20444;-91
2023/07/06 10:09:40;;;;;;;3.57;2.50;;;;;;;21.65;63.41;96452.44;7400767;19;20398;-90
2023/07/06 10:12:15;;;;;;;6.47;2.63;;;;;;;22.60;62.75;96527.50;7410445;19;20339;-90
2023/07/06 10:14:48;;;;;;;4.80;2.97;;;;;;;22.41;62.71;96529.56;7407625;19;20390;-91
2023/07/06 10:17:42;;;;;;;3.30;2.40;;;;;;;22.68;61.54;96537.03;7403559;19;20428;-91
2023/07/06 10:20:36;;;;;;;2.80;2.30;;;;;;;22.26;61.13;96524.72;7403495;19;20365;-92
2023/07/06 10:23:17;;;;;;;3.50;2.50;;;;;;;22.35;61.02;96509.63;7401314;19;20401;-91
2023/07/06 10:26:07;;;;;;;3.30;2.63;;;;;;;21.87;61.33;96457.66;7404678;19;20738;-91
2023/07/06 10:28:40;;;;;;;6.93;2.60;;;;;;;22.22;60.11;96530.13;7403148;19;20449;-91
2023/07/06 10:31:12;;;;;;;3.30;2.83;;;;;;;21.68;59.50;96483.19;7400706;19;20436;-91
2023/07/06 10:33:52;;;;;;;5.80;2.73;;;;;;;22.17;59.44;96533.25;7400084;19;20408;-91
2023/07/06 10:36:22;;;;;;;3.47;3.17;;;;;;;21.70;59.68;96408.94;7411945;19;20373;-90
2023/07/06 10:38:50;;;;;;;4.10;2.90;;;;;;;22.02;58.37;96405.97;7397918;19;20427;-90
2023/07/06 10:41:22;;;;;;;4.33;2.93;;;;;;;22.91;58.56;96485.97;7403781;19;20782;-91
2023/07/06 10:43:51;;;;;;;2.67;2.47;;;;;;;23.17;57.08;96481.06;7398917;19;20434;-90
2023/07/06 10:46:27;;;;;;;2.90;2.70;;;;;;;23.51;56.56;96484.47;7401871;19;20407;-90
2023/07/06 10:48:56;;;;;;;3.10;2.80;;;;;;;23.13;57.15;96431.78;7398092;19;20488;-90
2023/07/06 10:51:26;;;;;;;3.10;2.80;;;;;;;22.96;57.65;96525.97;7397154;19;20363;-91
2023/07/06 10:54:20;;;;;;;5.73;2.83;;;;;;;23.17;58.64;96530.38;7399381;19;20385;-91
2023/07/06 10:57:00;;;;;;;3.40;3.10;;;;;;;22.59;57.05;96461.28;7402805;19;20409;-87
2023/07/06 10:59:38;;;;;;;2.93;2.63;;;;;;;22.64;56.00;96520.91;7399379;19;20377;-88
2023/07/06 11:02:24;;;;;;;5.40;3.43;;;;;;;22.93;56.53;96517.94;7404931;19;20383;-88
2023/07/06 11:05:07;;;;;;;5.83;2.50;;;;;;;22.45;57.04;96415.63;7398011;19;20376;-87
2023/07/06 11:07:35;;;;;;;4.60;3.50;;;;;;;23.48;56.69;96489.88;7398692;19;20406;-87
2023/07/06 11:10:31;;;;;;;4.00;2.73;;;;;;;23.76;55.43;96519.22;7401213;19;20397;-88
2023/07/06 11:13:02;;;;;;;2.50;2.30;;;;;;;23.04;55.48;96469.25;7399581;19;20381;-88
2023/07/06 11:15:35;;;;;;;6.03;3.10;;;;;;;22.37;55.33;96518.06;7402066;19;20392;-87
2023/07/06 11:18:25;;;;;;;5.77;3.47;;;;;;;22.26;56.64;96512.00;7399073;19;20444;-91
2023/07/06 11:21:42;;;;;;;6.43;3.13;;;;;;;21.75;57.62;96500.03;7399285;19;20378;-90
2023/07/06 11:24:16;;;;;;;3.50;3.10;;;;;;;23.00;57.06;96515.94;7399977;19;20429;-91
2023/07/06 11:27:06;;;;;;;4.47;3.10;;;;;;;22.93;54.74;96520.63;7402316;19;20400;-90
2023/07/06 11:29:37;;;;;;;2.80;2.60;;;;;;;23.36;53.01;96520.13;7409409;19;20358;-91
2023/07/06 11:32:31;;;;;;;2.97;2.77;;;;;;;23.32;53.00;96524.81;7405710;19;20818;-90
2023/07/06 11:35:21;;;;;;;4.50;2.70;;;;;;;22.29;53.67;96486.19;7400743;19;20380;-90
2023/07/06 11:38:06;;;;;;;3.00;2.30;;;;;;;22.63;55.97;96462.00;7399105;19;20481;-90
2023/07/06 11:40:51;;;;;;;3.20;2.90;;;;;;;21.96;57.61;96422.97;7398845;19;20462;-90
2023/07/06 11:43:30;;;;;;;3.00;2.70;;;;;;;23.20;55.65;96518.00;7398507;19;20457;-90
2023/07/06 11:46:03;;;;;;;3.43;2.30;;;;;;;23.33;53.12;96469.66;7400986;19;20374;-91
2023/07/06 11:48:45;;;;;;;2.60;2.40;;;;;;;23.06;52.46;96462.28;7396914;19;20421;-89
2023/07/06 11:51:13;;;;;;;2.67;2.47;;;;;;;23.25;52.13;96407.72;7399196;19;20726;-90
2023/07/06 11:53:59;;;;;;;3.20;2.90;;;;;;;22.86;52.16;96367.78;7395393;19;20430;-91